sensor_id;sensor_type;location;lat;lon;timestamp;P1;durP1;ratioP1;P2;durP2;ratioP2
14007;SDS011;61651;45.508;12.232;2022-12-07T00:00:45;20.13;;;16.80;;
14007;SDS011;61651;45.508;12.232;2022-12-07T00:03:49;19.97;;;15.57;;
14007;SDS011;61651;45.508;12.232;2022-12-07T00:06:52;22.53;;;16.60;;
14007;SDS011;61651;45.508;12.232;2022-12-07T00:09:54;19.97;;;16.13;;
14007;SDS011;61651;45.508;12.232;2022-12-07T00:12:56;20.87;;;15.80;;
14007;SDS011;61651;45.508;12.232;2022-12-07T00:15:59;17.33;;;15.23;;
14007;SDS011;61651;45.508;12.232;2022-12-07T00:19:04;18.47;;;15.90;;
14007;SDS011;61651;45.508;12.232;2022-12-07T00:22:06;18.93;;;15.83;;
14007;SDS011;61651;45.508;12.232;2022-12-07T00:25:08;17.03;;;15.33;;
14007;SDS011;61651;45.508;12.232;2022-12-07T00:28:10;18.27;;;15.93;;
14007;SDS011;61651;45.508;12.232;2022-12-07T00:31:13;18.00;;;16.10;;
14007;SDS011;61651;45.508;12.232;2022-12-07T00:34:18;18.70;;;16.20;;
14007;SDS011;61651;45.508;12.232;2022-12-07T00:37:21;19.70;;;16.07;;
14007;SDS011;61651;45.508;12.232;2022-12-07T00:40:23;20.20;;;15.67;;
14007;SDS011;61651;45.508;12.232;2022-12-07T00:43:26;20.77;;;16.10;;
14007;SDS011;61651;45.508;12.232;2022-12-07T00:46:28;17.33;;;15.03;;
14007;SDS011;61651;45.508;12.232;2022-12-07T00:49:33;16.97;;;15.17;;
14007;SDS011;61651;45.508;12.232;2022-12-07T00:52:34;19.10;;;15.83;;
14007;SDS011;61651;45.508;12.232;2022-12-07T00:55:37;16.70;;;14.60;;
14007;SDS011;61651;45.508;12.232;2022-12-07T00:58:39;16.70;;;15.00;;
14007;SDS011;61651;45.508;12.232;2022-12-07T01:01:41;16.70;;;14.90;;
14007;SDS011;61651;45.508;12.232;2022-12-07T01:04:45;15.73;;;14.07;;
14007;SDS011;61651;45.508;12.232;2022-12-07T01:07:47;16.83;;;14.23;;
14007;SDS011;61651;45.508;12.232;2022-12-07T01:10:49;16.73;;;14.50;;
14007;SDS011;61651;45.508;12.232;2022-12-07T01:13:58;15.27;;;13.73;;
14007;SDS011;61651;45.508;12.232;2022-12-07T01:17:01;14.83;;;13.37;;
14007;SDS011;61651;45.508;12.232;2022-12-07T01:20:06;15.17;;;13.57;;
14007;SDS011;61651;45.508;12.232;2022-12-07T01:23:09;14.37;;;12.93;;
14007;SDS011;61651;45.508;12.232;2022-12-07T01:26:12;14.85;;;13.00;;
14007;SDS011;61651;45.508;12.232;2022-12-07T01:29:16;17.20;;;13.50;;
14007;SDS011;61651;45.508;12.232;2022-12-07T01:32:18;15.70;;;14.03;;
14007;SDS011;61651;45.508;12.232;2022-12-07T01:35:22;16.17;;;14.40;;
14007;SDS011;61651;45.508;12.232;2022-12-07T01:38:24;15.57;;;13.83;;
14007;SDS011;61651;45.508;12.232;2022-12-07T01:41:26;14.13;;;12.67;;
14007;SDS011;61651;45.508;12.232;2022-12-07T01:44:30;14.93;;;13.33;;
14007;SDS011;61651;45.508;12.232;2022-12-07T01:47:33;14.43;;;12.93;;
14007;SDS011;61651;45.508;12.232;2022-12-07T01:50:36;13.73;;;12.33;;
14007;SDS011;61651;45.508;12.232;2022-12-07T01:53:41;13.20;;;11.90;;
14007;SDS011;61651;45.508;12.232;2022-12-07T01:56:48;15.23;;;13.07;;
14007;SDS011;61651;45.508;12.232;2022-12-07T01:59:53;13.73;;;12.37;;
14007;SDS011;61651;45.508;12.232;2022-12-07T02:02:59;14.50;;;13.00;;
14007;SDS011;61651;45.508;12.232;2022-12-07T02:06:09;14.83;;;13.27;;
14007;SDS011;61651;45.508;12.232;2022-12-07T02:09:13;13.90;;;12.53;;
14007;SDS011;61651;45.508;12.232;2022-12-07T02:12:15;13.83;;;12.37;;
14007;SDS011;61651;45.508;12.232;2022-12-07T02:15:18;14.97;;;12.77;;
14007;SDS011;61651;45.508;12.232;2022-12-07T02:18:24;13.93;;;12.60;;
14007;SDS011;61651;45.508;12.232;2022-12-07T02:21:36;15.03;;;13.57;;
14007;SDS011;61651;45.508;12.232;2022-12-07T02:24:45;18.30;;;13.87;;
14007;SDS011;61651;45.508;12.232;2022-12-07T02:27:56;16.43;;;14.73;;
14007;SDS011;61651;45.508;12.232;2022-12-07T02:31:09;15.07;;;13.47;;
14007;SDS011;61651;45.508;12.232;2022-12-07T02:34:19;15.93;;;13.97;;
14007;SDS011;61651;45.508;12.232;2022-12-07T02:37:29;13.60;;;12.20;;
14007;SDS011;61651;45.508;12.232;2022-12-07T02:40:38;13.80;;;12.40;;
14007;SDS011;61651;45.508;12.232;2022-12-07T02:43:44;13.97;;;11.90;;
14007;SDS011;61651;45.508;12.232;2022-12-07T02:46:51;14.13;;;12.63;;
14007;SDS011;61651;45.508;12.232;2022-12-07T02:49:56;14.97;;;13.10;;
14007;SDS011;61651;45.508;12.232;2022-12-07T02:52:58;14.07;;;12.67;;
14007;SDS011;61651;45.508;12.232;2022-12-07T02:56:01;12.50;;;11.03;;
14007;SDS011;61651;45.508;12.232;2022-12-07T03:07:06;13.23;;;11.10;;
14007;SDS011;61651;45.508;12.232;2022-12-07T03:10:17;13.23;;;11.80;;
14007;SDS011;61651;45.508;12.232;2022-12-07T03:13:25;12.37;;;11.17;;
14007;SDS011;61651;45.508;12.232;2022-12-07T03:16:33;13.03;;;11.73;;
14007;SDS011;61651;45.508;12.232;2022-12-07T03:19:41;13.20;;;11.90;;
14007;SDS011;61651;45.508;12.232;2022-12-07T03:22:47;12.37;;;11.07;;
14007;SDS011;61651;45.508;12.232;2022-12-07T03:25:52;11.93;;;10.73;;
14007;SDS011;61651;45.508;12.232;2022-12-07T03:28:58;13.33;;;10.57;;
14007;SDS011;61651;45.508;12.232;2022-12-07T03:32:05;11.97;;;10.77;;
14007;SDS011;61651;45.508;12.232;2022-12-07T03:35:14;11.50;;;10.30;;
14007;SDS011;61651;45.508;12.232;2022-12-07T03:38:21;12.37;;;11.10;;
14007;SDS011;61651;45.508;12.232;2022-12-07T03:41:28;12.10;;;10.90;;
14007;SDS011;61651;45.508;12.232;2022-12-07T03:44:32;12.27;;;10.03;;
14007;SDS011;61651;45.508;12.232;2022-12-07T03:47:37;12.40;;;10.90;;
14007;SDS011;61651;45.508;12.232;2022-12-07T03:50:48;11.73;;;10.53;;
14007;SDS011;61651;45.508;12.232;2022-12-07T03:53:58;11.53;;;10.33;;
14007;SDS011;61651;45.508;12.232;2022-12-07T03:57:05;10.43;;;9.47;;
14007;SDS011;61651;45.508;12.232;2022-12-07T04:00:10;10.93;;;9.83;;
14007;SDS011;61651;45.508;12.232;2022-12-07T04:03:13;10.57;;;9.47;;
14007;SDS011;61651;45.508;12.232;2022-12-07T04:06:15;11.73;;;10.57;;
14007;SDS011;61651;45.508;12.232;2022-12-07T04:09:19;11.13;;;9.97;;
14007;SDS011;61651;45.508;12.232;2022-12-07T04:12:21;10.77;;;9.63;;
14007;SDS011;61651;45.508;12.232;2022-12-07T04:15:23;10.23;;;9.13;;
14007;SDS011;61651;45.508;12.232;2022-12-07T04:18:25;11.73;;;10.63;;
14007;SDS011;61651;45.508;12.232;2022-12-07T04:21:27;10.47;;;9.50;;
14007;SDS011;61651;45.508;12.232;2022-12-07T04:24:31;10.90;;;9.77;;
14007;SDS011;61651;45.508;12.232;2022-12-07T04:27:33;11.30;;;10.10;;
14007;SDS011;61651;45.508;12.232;2022-12-07T04:30:35;11.30;;;9.77;;
14007;SDS011;61651;45.508;12.232;2022-12-07T04:33:37;10.73;;;8.87;;
14007;SDS011;61651;45.508;12.232;2022-12-07T04:36:39;11.63;;;9.87;;
14007;SDS011;61651;45.508;12.232;2022-12-07T04:39:43;10.43;;;9.40;;
14007;SDS011;61651;45.508;12.232;2022-12-07T04:42:45;11.20;;;10.03;;
14007;SDS011;61651;45.508;12.232;2022-12-07T04:45:47;11.13;;;9.93;;
14007;SDS011;61651;45.508;12.232;2022-12-07T04:48:50;10.53;;;9.27;;
14007;SDS011;61651;45.508;12.232;2022-12-07T04:51:53;10.00;;;9.00;;
14007;SDS011;61651;45.508;12.232;2022-12-07T04:54:56;10.77;;;9.67;;
14007;SDS011;61651;45.508;12.232;2022-12-07T04:57:58;12.27;;;9.43;;
14007;SDS011;61651;45.508;12.232;2022-12-07T05:01:00;10.70;;;9.50;;
14007;SDS011;61651;45.508;12.232;2022-12-07T05:04:02;10.93;;;9.50;;
14007;SDS011;61651;45.508;12.232;2022-12-07T05:07:04;9.50;;;8.47;;
14007;SDS011;61651;45.508;12.232;2022-12-07T05:10:08;12.17;;;8.67;;
14007;SDS011;61651;45.508;12.232;2022-12-07T05:13:11;10.57;;;9.33;;
14007;SDS011;61651;45.508;12.232;2022-12-07T05:16:13;9.93;;;8.93;;
14007;SDS011;61651;45.508;12.232;2022-12-07T05:19:15;9.90;;;8.90;;
14007;SDS011;61651;45.508;12.232;2022-12-07T05:22:18;12.03;;;9.13;;
14007;SDS011;61651;45.508;12.232;2022-12-07T05:25:22;12.43;;;8.87;;
14007;SDS011;61651;45.508;12.232;2022-12-07T05:28:24;8.93;;;8.03;;
14007;SDS011;61651;45.508;12.232;2022-12-07T05:31:27;12.97;;;9.17;;
14007;SDS011;61651;45.508;12.232;2022-12-07T05:34:29;9.50;;;8.10;;
14007;SDS011;61651;45.508;12.232;2022-12-07T05:37:31;9.03;;;8.13;;
14007;SDS011;61651;45.508;12.232;2022-12-07T05:40:34;11.17;;;8.50;;
14007;SDS011;61651;45.508;12.232;2022-12-07T05:43:38;10.53;;;8.53;;
14007;SDS011;61651;45.508;12.232;2022-12-07T05:46:40;9.47;;;8.43;;
14007;SDS011;61651;45.508;12.232;2022-12-07T05:49:41;9.97;;;8.17;;
14007;SDS011;61651;45.508;12.232;2022-12-07T05:52:44;8.57;;;7.70;;
14007;SDS011;61651;45.508;12.232;2022-12-07T05:55:47;9.23;;;8.33;;
14007;SDS011;61651;45.508;12.232;2022-12-07T05:58:49;12.23;;;9.33;;
14007;SDS011;61651;45.508;12.232;2022-12-07T06:02:09;9.50;;;8.50;;
14007;SDS011;61651;45.508;12.232;2022-12-07T06:05:13;10.50;;;8.20;;
14007;SDS011;61651;45.508;12.232;2022-12-07T06:08:15;9.33;;;8.00;;
14007;SDS011;61651;45.508;12.232;2022-12-07T06:11:18;8.67;;;7.87;;
14007;SDS011;61651;45.508;12.232;2022-12-07T06:14:37;9.60;;;7.80;;
14007;SDS011;61651;45.508;12.232;2022-12-07T06:17:39;8.80;;;7.90;;
14007;SDS011;61651;45.508;12.232;2022-12-07T06:20:41;9.87;;;8.97;;
14007;SDS011;61651;45.508;12.232;2022-12-07T06:23:43;10.80;;;8.60;;
14007;SDS011;61651;45.508;12.232;2022-12-07T06:26:47;10.87;;;9.77;;
14007;SDS011;61651;45.508;12.232;2022-12-07T06:29:49;10.07;;;9.07;;
14007;SDS011;61651;45.508;12.232;2022-12-07T06:32:51;10.63;;;8.97;;
14007;SDS011;61651;45.508;12.232;2022-12-07T06:35:54;11.03;;;8.80;;
14007;SDS011;61651;45.508;12.232;2022-12-07T06:38:56;9.27;;;7.53;;
14007;SDS011;61651;45.508;12.232;2022-12-07T06:42:00;10.97;;;8.83;;
14007;SDS011;61651;45.508;12.232;2022-12-07T06:45:02;11.47;;;8.57;;
14007;SDS011;61651;45.508;12.232;2022-12-07T06:48:04;13.90;;;9.23;;
14007;SDS011;61651;45.508;12.232;2022-12-07T06:51:07;11.33;;;8.57;;
14007;SDS011;61651;45.508;12.232;2022-12-07T06:54:09;9.93;;;8.83;;
14007;SDS011;61651;45.508;12.232;2022-12-07T06:57:13;11.67;;;9.97;;
14007;SDS011;61651;45.508;12.232;2022-12-07T07:00:16;11.70;;;10.47;;
14007;SDS011;61651;45.508;12.232;2022-12-07T07:03:18;12.53;;;9.83;;
14007;SDS011;61651;45.508;12.232;2022-12-07T07:06:21;10.40;;;9.33;;
14007;SDS011;61651;45.508;12.232;2022-12-07T07:09:23;10.43;;;9.23;;
14007;SDS011;61651;45.508;12.232;2022-12-07T07:12:26;9.90;;;8.90;;
14007;SDS011;61651;45.508;12.232;2022-12-07T07:15:28;10.27;;;9.23;;
14007;SDS011;61651;45.508;12.232;2022-12-07T07:18:30;10.80;;;9.80;;
14007;SDS011;61651;45.508;12.232;2022-12-07T07:21:32;11.43;;;9.43;;
14007;SDS011;61651;45.508;12.232;2022-12-07T07:24:34;10.23;;;8.87;;
14007;SDS011;61651;45.508;12.232;2022-12-07T07:27:37;10.87;;;9.10;;
14007;SDS011;61651;45.508;12.232;2022-12-07T07:30:39;10.27;;;9.27;;
14007;SDS011;61651;45.508;12.232;2022-12-07T07:33:41;10.80;;;9.80;;
14007;SDS011;61651;45.508;12.232;2022-12-07T07:36:44;9.90;;;8.97;;
14007;SDS011;61651;45.508;12.232;2022-12-07T07:39:46;11.13;;;9.63;;
14007;SDS011;61651;45.508;12.232;2022-12-07T07:42:49;12.37;;;9.37;;
14007;SDS011;61651;45.508;12.232;2022-12-07T07:45:52;10.63;;;9.53;;
14007;SDS011;61651;45.508;12.232;2022-12-07T07:48:54;11.13;;;8.60;;
14007;SDS011;61651;45.508;12.232;2022-12-07T07:51:56;12.03;;;9.83;;
14007;SDS011;61651;45.508;12.232;2022-12-07T07:54:58;10.67;;;9.57;;
14007;SDS011;61651;45.508;12.232;2022-12-07T07:58:01;11.03;;;9.67;;
14007;SDS011;61651;45.508;12.232;2022-12-07T08:01:04;13.07;;;9.57;;
14007;SDS011;61651;45.508;12.232;2022-12-07T08:04:06;13.40;;;10.67;;
14007;SDS011;61651;45.508;12.232;2022-12-07T08:07:08;12.57;;;9.40;;
14007;SDS011;61651;45.508;12.232;2022-12-07T08:10:12;11.53;;;10.33;;
14007;SDS011;61651;45.508;12.232;2022-12-07T08:13:16;13.43;;;10.87;;
14007;SDS011;61651;45.508;12.232;2022-12-07T08:16:18;11.63;;;9.50;;
14007;SDS011;61651;45.508;12.232;2022-12-07T08:19:20;11.00;;;9.77;;
14007;SDS011;61651;45.508;12.232;2022-12-07T08:22:23;11.53;;;9.97;;
14007;SDS011;61651;45.508;12.232;2022-12-07T08:25:25;10.83;;;9.73;;
14007;SDS011;61651;45.508;12.232;2022-12-07T08:28:29;15.63;;;9.07;;
14007;SDS011;61651;45.508;12.232;2022-12-07T08:31:31;11.53;;;8.40;;
14007;SDS011;61651;45.508;12.232;2022-12-07T08:34:33;10.40;;;8.83;;
14007;SDS011;61651;45.508;12.232;2022-12-07T08:37:36;12.37;;;9.00;;
14007;SDS011;61651;45.508;12.232;2022-12-07T08:40:38;13.60;;;9.63;;
14007;SDS011;61651;45.508;12.232;2022-12-07T08:43:41;11.77;;;9.43;;
14007;SDS011;61651;45.508;12.232;2022-12-07T08:46:44;11.43;;;9.37;;
14007;SDS011;61651;45.508;12.232;2022-12-07T08:49:50;12.03;;;8.97;;
14007;SDS011;61651;45.508;12.232;2022-12-07T08:52:54;11.73;;;9.93;;
14007;SDS011;61651;45.508;12.232;2022-12-07T08:55:58;12.20;;;8.63;;
14007;SDS011;61651;45.508;12.232;2022-12-07T08:59:02;10.27;;;8.60;;
14007;SDS011;61651;45.508;12.232;2022-12-07T09:02:05;16.33;;;10.52;;
14007;SDS011;61651;45.508;12.232;2022-12-07T09:05:07;11.03;;;9.93;;
14007;SDS011;61651;45.508;12.232;2022-12-07T09:08:10;15.73;;;9.80;;
14007;SDS011;61651;45.508;12.232;2022-12-07T09:11:12;18.77;;;14.47;;
14007;SDS011;61651;45.508;12.232;2022-12-07T09:14:15;13.93;;;11.20;;
14007;SDS011;61651;45.508;12.232;2022-12-07T09:17:18;14.43;;;10.53;;
14007;SDS011;61651;45.508;12.232;2022-12-07T09:20:21;15.23;;;11.20;;
14007;SDS011;61651;45.508;12.232;2022-12-07T09:23:23;13.35;;;11.35;;
14007;SDS011;61651;45.508;12.232;2022-12-07T09:26:25;13.17;;;10.90;;
14007;SDS011;61651;45.508;12.232;2022-12-07T09:29:28;11.07;;;9.93;;
14007;SDS011;61651;45.508;12.232;2022-12-07T09:32:30;12.83;;;10.17;;
14007;SDS011;61651;45.508;12.232;2022-12-07T09:35:32;10.63;;;9.53;;
14007;SDS011;61651;45.508;12.232;2022-12-07T09:38:34;13.77;;;9.23;;
14007;SDS011;61651;45.508;12.232;2022-12-07T09:41:37;10.37;;;9.13;;
14007;SDS011;61651;45.508;12.232;2022-12-07T09:44:42;11.50;;;8.73;;
14007;SDS011;61651;45.508;12.232;2022-12-07T09:47:44;11.40;;;9.43;;
14007;SDS011;61651;45.508;12.232;2022-12-07T09:50:47;10.03;;;9.00;;
14007;SDS011;61651;45.508;12.232;2022-12-07T09:53:50;9.93;;;8.60;;
14007;SDS011;61651;45.508;12.232;2022-12-07T09:56:54;11.33;;;9.20;;
14007;SDS011;61651;45.508;12.232;2022-12-07T09:59:59;11.07;;;9.30;;
14007;SDS011;61651;45.508;12.232;2022-12-07T10:03:04;9.63;;;8.63;;
14007;SDS011;61651;45.508;12.232;2022-12-07T10:06:10;9.67;;;7.57;;
14007;SDS011;61651;45.508;12.232;2022-12-07T10:09:15;12.13;;;7.97;;
14007;SDS011;61651;45.508;12.232;2022-12-07T10:12:18;8.47;;;7.00;;
14007;SDS011;61651;45.508;12.232;2022-12-07T10:15:21;8.87;;;7.27;;
14007;SDS011;61651;45.508;12.232;2022-12-07T10:18:28;9.43;;;7.83;;
14007;SDS011;61651;45.508;12.232;2022-12-07T10:21:32;8.97;;;8.07;;
14007;SDS011;61651;45.508;12.232;2022-12-07T10:24:34;9.67;;;8.70;;
14007;SDS011;61651;45.508;12.232;2022-12-07T10:27:37;8.57;;;7.70;;
14007;SDS011;61651;45.508;12.232;2022-12-07T10:31:00;9.80;;;7.93;;
14007;SDS011;61651;45.508;12.232;2022-12-07T10:34:12;9.63;;;7.40;;
14007;SDS011;61651;45.508;12.232;2022-12-07T10:37:24;7.80;;;7.00;;
14007;SDS011;61651;45.508;12.232;2022-12-07T10:40:29;9.23;;;6.70;;
14007;SDS011;61651;45.508;12.232;2022-12-07T10:43:33;7.90;;;6.20;;
14007;SDS011;61651;45.508;12.232;2022-12-07T10:46:45;9.47;;;6.20;;
14007;SDS011;61651;45.508;12.232;2022-12-07T10:53:33;5.90;;;5.40;;
14007;SDS011;61651;45.508;12.232;2022-12-07T10:56:54;7.73;;;5.83;;
14007;SDS011;61651;45.508;12.232;2022-12-07T11:00:16;6.13;;;5.50;;
14007;SDS011;61651;45.508;12.232;2022-12-07T11:03:24;6.43;;;5.20;;
14007;SDS011;61651;45.508;12.232;2022-12-07T11:06:37;6.47;;;5.37;;
14007;SDS011;61651;45.508;12.232;2022-12-07T11:10:00;7.77;;;5.63;;
14007;SDS011;61651;45.508;12.232;2022-12-07T11:13:13;5.53;;;5.03;;
14007;SDS011;61651;45.508;12.232;2022-12-07T11:16:30;5.87;;;5.37;;
14007;SDS011;61651;45.508;12.232;2022-12-07T11:19:46;7.47;;;5.73;;
14007;SDS011;61651;45.508;12.232;2022-12-07T11:22:57;6.13;;;5.53;;
14007;SDS011;61651;45.508;12.232;2022-12-07T11:26:06;6.13;;;5.33;;
14007;SDS011;61651;45.508;12.232;2022-12-07T11:29:21;6.03;;;5.27;;
14007;SDS011;61651;45.508;12.232;2022-12-07T11:36:16;5.43;;;4.93;;
14007;SDS011;61651;45.508;12.232;2022-12-07T11:39:33;6.00;;;5.40;;
14007;SDS011;61651;45.508;12.232;2022-12-07T11:42:41;5.90;;;5.27;;
14007;SDS011;61651;45.508;12.232;2022-12-07T11:45:46;6.07;;;5.53;;
14007;SDS011;61651;45.508;12.232;2022-12-07T11:48:55;7.00;;;5.37;;
14007;SDS011;61651;45.508;12.232;2022-12-07T11:52:06;5.33;;;4.80;;
14007;SDS011;61651;45.508;12.232;2022-12-07T11:55:18;6.00;;;4.20;;
14007;SDS011;61651;45.508;12.232;2022-12-07T11:58:33;4.87;;;4.30;;
14007;SDS011;61651;45.508;12.232;2022-12-07T12:01:44;5.97;;;5.37;;
14007;SDS011;61651;45.508;12.232;2022-12-07T12:04:54;5.93;;;5.33;;
14007;SDS011;61651;45.508;12.232;2022-12-07T12:08:04;7.77;;;4.87;;
14007;SDS011;61651;45.508;12.232;2022-12-07T12:11:17;5.87;;;4.20;;
14007;SDS011;61651;45.508;12.232;2022-12-07T12:14:37;5.38;;;4.88;;
14007;SDS011;61651;45.508;12.232;2022-12-07T12:18:00;4.40;;;4.00;;
14007;SDS011;61651;45.508;12.232;2022-12-07T12:21:15;4.17;;;3.80;;
14007;SDS011;61651;45.508;12.232;2022-12-07T12:24:21;3.80;;;3.50;;
14007;SDS011;61651;45.508;12.232;2022-12-07T12:27:27;3.67;;;3.07;;
14007;SDS011;61651;45.508;12.232;2022-12-07T12:30:34;4.47;;;3.07;;
14007;SDS011;61651;45.508;12.232;2022-12-07T12:33:37;5.67;;;3.40;;
14007;SDS011;61651;45.508;12.232;2022-12-07T12:36:45;3.83;;;2.87;;
14007;SDS011;61651;45.508;12.232;2022-12-07T12:43:52;3.33;;;2.87;;
14007;SDS011;61651;45.508;12.232;2022-12-07T12:46:54;3.23;;;2.93;;
14007;SDS011;61651;45.508;12.232;2022-12-07T12:50:11;3.13;;;2.83;;
14007;SDS011;61651;45.508;12.232;2022-12-07T12:53:20;5.25;;;3.88;;
14007;SDS011;61651;45.508;12.232;2022-12-07T12:56:27;3.60;;;3.05;;
14007;SDS011;61651;45.508;12.232;2022-12-07T12:59:41;3.17;;;2.80;;
14007;SDS011;61651;45.508;12.232;2022-12-07T13:02:58;2.50;;;2.30;;
14007;SDS011;61651;45.508;12.232;2022-12-07T13:06:20;3.72;;;2.95;;
14007;SDS011;61651;45.508;12.232;2022-12-07T13:09:33;6.32;;;3.20;;
14007;SDS011;61651;45.508;12.232;2022-12-07T13:12:36;3.53;;;2.75;;
14007;SDS011;61651;45.508;12.232;2022-12-07T13:15:40;3.60;;;3.10;;
14007;SDS011;61651;45.508;12.232;2022-12-07T13:18:43;3.47;;;3.10;;
14007;SDS011;61651;45.508;12.232;2022-12-07T13:21:45;3.78;;;3.30;;
14007;SDS011;61651;45.508;12.232;2022-12-07T13:24:47;3.85;;;3.08;;
14007;SDS011;61651;45.508;12.232;2022-12-07T13:27:51;2.88;;;2.67;;
14007;SDS011;61651;45.508;12.232;2022-12-07T13:31:02;4.40;;;2.88;;
14007;SDS011;61651;45.508;12.232;2022-12-07T13:34:29;2.85;;;2.65;;
14007;SDS011;61651;45.508;12.232;2022-12-07T13:37:32;3.53;;;3.10;;
14007;SDS011;61651;45.508;12.232;2022-12-07T13:40:35;3.05;;;2.55;;
14007;SDS011;61651;45.508;12.232;2022-12-07T13:43:48;3.10;;;2.90;;
14007;SDS011;61651;45.508;12.232;2022-12-07T13:46:57;3.03;;;2.70;;
14007;SDS011;61651;45.508;12.232;2022-12-07T13:50:21;4.13;;;3.08;;
14007;SDS011;61651;45.508;12.232;2022-12-07T13:53:25;2.88;;;2.55;;
14007;SDS011;61651;45.508;12.232;2022-12-07T13:56:31;2.95;;;2.70;;
14007;SDS011;61651;45.508;12.232;2022-12-07T13:59:35;3.53;;;3.05;;
14007;SDS011;61651;45.508;12.232;2022-12-07T14:02:54;3.13;;;2.83;;
14007;SDS011;61651;45.508;12.232;2022-12-07T14:06:11;3.40;;;3.10;;
14007;SDS011;61651;45.508;12.232;2022-12-07T14:09:20;3.45;;;2.85;;
14007;SDS011;61651;45.508;12.232;2022-12-07T14:12:23;3.20;;;2.90;;
14007;SDS011;61651;45.508;12.232;2022-12-07T14:15:27;3.05;;;2.78;;
14007;SDS011;61651;45.508;12.232;2022-12-07T14:18:37;2.92;;;2.63;;
14007;SDS011;61651;45.508;12.232;2022-12-07T14:21:40;4.03;;;3.00;;
14007;SDS011;61651;45.508;12.232;2022-12-07T14:24:43;3.22;;;2.95;;
14007;SDS011;61651;45.508;12.232;2022-12-07T14:27:49;3.13;;;2.80;;
14007;SDS011;61651;45.508;12.232;2022-12-07T14:30:55;3.13;;;2.83;;
14007;SDS011;61651;45.508;12.232;2022-12-07T14:34:00;2.92;;;2.63;;
14007;SDS011;61651;45.508;12.232;2022-12-07T14:37:01;2.70;;;2.28;;
14007;SDS011;61651;45.508;12.232;2022-12-07T14:40:04;3.35;;;2.70;;
14007;SDS011;61651;45.508;12.232;2022-12-07T14:43:09;4.13;;;3.50;;
14007;SDS011;61651;45.508;12.232;2022-12-07T14:46:13;3.10;;;2.70;;
14007;SDS011;61651;45.508;12.232;2022-12-07T14:49:16;4.03;;;3.22;;
14007;SDS011;61651;45.508;12.232;2022-12-07T14:52:19;3.10;;;2.72;;
14007;SDS011;61651;45.508;12.232;2022-12-07T14:55:25;3.55;;;2.63;;
14007;SDS011;61651;45.508;12.232;2022-12-07T14:58:28;3.40;;;3.10;;
14007;SDS011;61651;45.508;12.232;2022-12-07T15:01:30;3.72;;;2.90;;
14007;SDS011;61651;45.508;12.232;2022-12-07T15:04:33;3.28;;;2.97;;
14007;SDS011;61651;45.508;12.232;2022-12-07T15:07:35;3.78;;;2.97;;
14007;SDS011;61651;45.508;12.232;2022-12-07T15:10:37;3.35;;;3.05;;
14007;SDS011;61651;45.508;12.232;2022-12-07T15:13:40;4.90;;;3.05;;
14007;SDS011;61651;45.508;12.232;2022-12-07T15:17:01;3.65;;;3.20;;
14007;SDS011;61651;45.508;12.232;2022-12-07T15:20:07;4.47;;;3.60;;
14007;SDS011;61651;45.508;12.232;2022-12-07T15:23:12;5.43;;;3.40;;
14007;SDS011;61651;45.508;12.232;2022-12-07T15:26:15;4.30;;;3.75;;
14007;SDS011;61651;45.508;12.232;2022-12-07T15:29:17;5.03;;;3.65;;
14007;SDS011;61651;45.508;12.232;2022-12-07T15:32:21;5.93;;;3.95;;
14007;SDS011;61651;45.508;12.232;2022-12-07T15:35:25;8.07;;;4.65;;
14007;SDS011;61651;45.508;12.232;2022-12-07T15:38:27;3.95;;;3.45;;
14007;SDS011;61651;45.508;12.232;2022-12-07T15:41:30;6.00;;;4.00;;
14007;SDS011;61651;45.508;12.232;2022-12-07T15:44:32;4.47;;;3.75;;
14007;SDS011;61651;45.508;12.232;2022-12-07T15:47:52;4.82;;;3.80;;
14007;SDS011;61651;45.508;12.232;2022-12-07T15:51:02;6.43;;;4.32;;
14007;SDS011;61651;45.508;12.232;2022-12-07T15:54:05;5.07;;;3.90;;
14007;SDS011;61651;45.508;12.232;2022-12-07T15:57:06;4.93;;;4.32;;
14007;SDS011;61651;45.508;12.232;2022-12-07T16:00:09;4.93;;;4.43;;
14007;SDS011;61651;45.508;12.232;2022-12-07T16:03:12;5.80;;;5.10;;
14007;SDS011;61651;45.508;12.232;2022-12-07T16:06:16;9.00;;;4.57;;
14007;SDS011;61651;45.508;12.232;2022-12-07T16:09:19;6.50;;;4.40;;
14007;SDS011;61651;45.508;12.232;2022-12-07T16:12:21;11.17;;;5.10;;
14007;SDS011;61651;45.508;12.232;2022-12-07T16:15:25;7.73;;;4.80;;
14007;SDS011;61651;45.508;12.232;2022-12-07T16:18:27;7.53;;;5.07;;
14007;SDS011;61651;45.508;12.232;2022-12-07T16:21:30;8.53;;;5.70;;
14007;SDS011;61651;45.508;12.232;2022-12-07T16:24:32;22.20;;;14.90;;
14007;SDS011;61651;45.508;12.232;2022-12-07T16:27:34;24.70;;;18.67;;
14007;SDS011;61651;45.508;12.232;2022-12-07T16:30:36;16.87;;;13.97;;
14007;SDS011;61651;45.508;12.232;2022-12-07T16:33:39;16.00;;;10.97;;
14007;SDS011;61651;45.508;12.232;2022-12-07T16:36:43;12.37;;;8.97;;
14007;SDS011;61651;45.508;12.232;2022-12-07T16:39:45;9.07;;;6.83;;
14007;SDS011;61651;45.508;12.232;2022-12-07T16:42:47;8.17;;;6.00;;
14007;SDS011;61651;45.508;12.232;2022-12-07T16:45:49;7.33;;;6.20;;
14007;SDS011;61651;45.508;12.232;2022-12-07T16:48:51;9.37;;;6.80;;
14007;SDS011;61651;45.508;12.232;2022-12-07T16:51:55;8.43;;;6.60;;
14007;SDS011;61651;45.508;12.232;2022-12-07T16:54:57;7.50;;;6.43;;
14007;SDS011;61651;45.508;12.232;2022-12-07T16:57:59;10.40;;;7.40;;
14007;SDS011;61651;45.508;12.232;2022-12-07T17:01:08;10.93;;;8.17;;
14007;SDS011;61651;45.508;12.232;2022-12-07T17:04:11;11.50;;;9.70;;
14007;SDS011;61651;45.508;12.232;2022-12-07T17:07:14;19.00;;;15.80;;
14007;SDS011;61651;45.508;12.232;2022-12-07T17:10:16;22.70;;;19.30;;
14007;SDS011;61651;45.508;12.232;2022-12-07T17:13:18;12.97;;;10.87;;
14007;SDS011;61651;45.508;12.232;2022-12-07T17:16:37;12.40;;;9.30;;
14007;SDS011;61651;45.508;12.232;2022-12-07T17:19:39;10.67;;;8.33;;
14007;SDS011;61651;45.508;12.232;2022-12-07T17:22:43;9.23;;;7.80;;
14007;SDS011;61651;45.508;12.232;2022-12-07T17:25:45;15.17;;;9.23;;
14007;SDS011;61651;45.508;12.232;2022-12-07T17:28:47;10.73;;;8.73;;
14007;SDS011;61651;45.508;12.232;2022-12-07T17:31:49;10.67;;;8.77;;
14007;SDS011;61651;45.508;12.232;2022-12-07T17:34:51;12.77;;;10.00;;
14007;SDS011;61651;45.508;12.232;2022-12-07T17:37:55;13.33;;;10.40;;
14007;SDS011;61651;45.508;12.232;2022-12-07T17:40:57;30.27;;;21.17;;
14007;SDS011;61651;45.508;12.232;2022-12-07T17:43:59;26.37;;;20.90;;
14007;SDS011;61651;45.508;12.232;2022-12-07T17:47:01;33.37;;;21.67;;
14007;SDS011;61651;45.508;12.232;2022-12-07T17:50:03;27.27;;;18.70;;
14007;SDS011;61651;45.508;12.232;2022-12-07T17:53:09;28.50;;;17.47;;
14007;SDS011;61651;45.508;12.232;2022-12-07T17:56:11;23.50;;;18.40;;
14007;SDS011;61651;45.508;12.232;2022-12-07T17:59:13;24.40;;;17.53;;
14007;SDS011;61651;45.508;12.232;2022-12-07T18:02:15;21.10;;;16.00;;
14007;SDS011;61651;45.508;12.232;2022-12-07T18:05:17;23.03;;;17.20;;
14007;SDS011;61651;45.508;12.232;2022-12-07T18:08:20;21.67;;;16.90;;
14007;SDS011;61651;45.508;12.232;2022-12-07T18:11:22;21.67;;;17.90;;
14007;SDS011;61651;45.508;12.232;2022-12-07T18:14:25;22.33;;;18.13;;
14007;SDS011;61651;45.508;12.232;2022-12-07T18:17:28;20.80;;;17.43;;
14007;SDS011;61651;45.508;12.232;2022-12-07T18:20:30;20.43;;;16.47;;
14007;SDS011;61651;45.508;12.232;2022-12-07T18:23:33;21.93;;;15.97;;